createdAt,value
2022-12-31T00:00:08.733Z,89.21
2022-12-31T00:02:36.274Z,88.89
2022-12-31T00:05:03.753Z,88.74
2022-12-31T00:07:30.341Z,89.50
2022-12-31T00:09:56.899Z,89.10
2022-12-31T00:12:23.416Z,89.53
2022-12-31T00:14:49.918Z,90.30
2022-12-31T00:17:16.452Z,89.33
2022-12-31T00:19:43.019Z,89.93
2022-12-31T00:22:10.019Z,90.18
2022-12-31T00:24:36.582Z,90.39
2022-12-31T00:27:03.359Z,89.70
2022-12-31T00:29:29.977Z,89.66
2022-12-31T00:31:56.567Z,89.90
2022-12-31T00:34:23.222Z,90.08
2022-12-31T00:36:49.762Z,90.11
2022-12-31T00:39:16.363Z,89.96
2022-12-31T00:41:44.139Z,90.34
2022-12-31T00:44:13.857Z,90.22
2022-12-31T00:49:06.180Z,90.62
2022-12-31T00:51:38.014Z,90.09
2022-12-31T00:54:04.621Z,90.38
2022-12-31T00:56:31.751Z,90.39
2022-12-31T00:58:59.716Z,90.91
2022-12-31T01:01:28.911Z,90.60
2022-12-31T01:03:59.463Z,90.68
2022-12-31T01:06:26.068Z,90.38
2022-12-31T01:08:53.998Z,90.93
2022-12-31T01:11:24.656Z,91.08
2022-12-31T01:13:57.186Z,90.93
2022-12-31T01:16:27.777Z,90.83
2022-12-31T01:18:54.750Z,90.62
2022-12-31T01:21:21.927Z,90.59
2022-12-31T01:23:49.100Z,91.00
2022-12-31T01:26:17.538Z,90.66
2022-12-31T01:28:44.460Z,90.55
2022-12-31T01:31:14.934Z,91.24
2022-12-31T01:33:42.571Z,90.63
2022-12-31T01:36:13.017Z,90.79
2022-12-31T01:38:40.402Z,90.68
2022-12-31T01:41:07.787Z,90.89
2022-12-31T01:43:43.325Z,90.63
2022-12-31T01:46:12.755Z,90.86
2022-12-31T01:48:39.318Z,90.42
2022-12-31T01:51:09.755Z,90.47
2022-12-31T01:53:40.694Z,90.71
2022-12-31T01:56:07.797Z,90.64
2022-12-31T01:58:43.086Z,90.92
2022-12-31T02:01:11.445Z,90.64
2022-12-31T02:03:39.318Z,90.73
2022-12-31T02:06:18.119Z,90.98
2022-12-31T02:08:45.232Z,90.39
2022-12-31T02:11:24.661Z,90.99
2022-12-31T02:13:58.210Z,91.10
2022-12-31T02:16:34.795Z,90.63
2022-12-31T02:19:32.261Z,90.99
2022-12-31T02:22:17.215Z,90.65
2022-12-31T02:25:10.346Z,90.87
2022-12-31T02:28:19.874Z,90.74
2022-12-31T02:30:52.403Z,90.61
2022-12-31T02:33:21.624Z,90.98
2022-12-31T02:35:55.480Z,91.49
2022-12-31T02:38:26.572Z,91.46
2022-12-31T02:40:56.680Z,91.87
2022-12-31T02:43:23.619Z,91.17
2022-12-31T02:46:11.938Z,91.40
2022-12-31T02:49:03.558Z,90.92
2022-12-31T02:51:32.696Z,91.06
2022-12-31T02:54:18.610Z,91.24
2022-12-31T02:57:15.563Z,91.23
2022-12-31T03:00:15.575Z,91.66
2022-12-31T03:02:45.765Z,91.17
2022-12-31T03:05:16.075Z,91.04
2022-12-31T03:07:44.309Z,91.53
2022-12-31T03:10:11.410Z,91.74
2022-12-31T03:12:48.900Z,91.76
2022-12-31T03:15:27.430Z,91.38
2022-12-31T03:18:05.489Z,91.37
2022-12-31T03:20:56.390Z,91.37
2022-12-31T03:23:30.907Z,91.46
2022-12-31T03:25:58.380Z,91.07
2022-12-31T03:28:30.336Z,91.11
2022-12-31T03:31:00.384Z,91.36
2022-12-31T03:33:31.735Z,91.32
2022-12-31T03:35:58.312Z,91.14
2022-12-31T03:38:25.035Z,91.59
2022-12-31T03:40:53.232Z,91.34
2022-12-31T03:43:20.604Z,91.31
2022-12-31T03:45:51.996Z,91.15
2022-12-31T03:48:19.286Z,91.56
2022-12-31T03:50:45.966Z,91.16
2022-12-31T03:53:12.617Z,91.69
2022-12-31T03:55:39.109Z,91.30
2022-12-31T03:58:06.047Z,90.95
2022-12-31T04:00:32.969Z,91.34
2022-12-31T04:02:59.509Z,91.26
2022-12-31T04:05:26.124Z,91.31
2022-12-31T04:07:52.668Z,91.55
2022-12-31T04:10:20.550Z,91.57
2022-12-31T04:12:47.192Z,91.18
2022-12-31T04:15:20.455Z,91.83
2022-12-31T04:17:47.835Z,91.43
2022-12-31T04:20:15.883Z,91.32
2022-12-31T04:22:44.040Z,91.43
2022-12-31T04:25:13.904Z,91.74
2022-12-31T04:27:43.540Z,91.64
2022-12-31T04:30:12.129Z,91.35
2022-12-31T04:32:38.746Z,91.68
2022-12-31T04:35:06.945Z,91.16
2022-12-31T04:37:33.663Z,91.42
2022-12-31T04:40:05.827Z,91.24
2022-12-31T04:42:33.619Z,91.27
2022-12-31T04:45:00.194Z,91.27
2022-12-31T04:47:26.905Z,91.43
2022-12-31T04:49:53.399Z,91.63
2022-12-31T04:52:19.971Z,91.62
2022-12-31T04:54:46.700Z,91.45
2022-12-31T04:57:13.241Z,91.31
2022-12-31T04:59:39.864Z,91.54
2022-12-31T05:02:06.458Z,91.36
2022-12-31T05:04:33.414Z,91.76
2022-12-31T05:06:59.874Z,91.71
2022-12-31T05:09:28.336Z,91.38
2022-12-31T05:11:55.089Z,91.43
2022-12-31T05:14:21.835Z,91.81
2022-12-31T05:16:48.473Z,92.13
2022-12-31T05:19:15.193Z,92.92
2022-12-31T05:21:41.732Z,92.12
2022-12-31T05:24:09.560Z,91.70
2022-12-31T05:26:36.087Z,91.94
2022-12-31T05:29:02.697Z,92.08
2022-12-31T05:31:29.148Z,92.04
2022-12-31T05:33:55.785Z,92.26
2022-12-31T05:36:22.213Z,92.01
2022-12-31T05:38:48.889Z,92.04
2022-12-31T05:41:15.541Z,92.36
2022-12-31T05:43:42.009Z,91.96
2022-12-31T05:46:09.095Z,92.76
2022-12-31T05:48:35.710Z,92.55
2022-12-31T05:51:02.477Z,92.44
2022-12-31T05:53:29.026Z,92.32
2022-12-31T05:55:55.693Z,92.20
2022-12-31T05:58:22.227Z,92.36
2022-12-31T06:00:48.792Z,92.28
2022-12-31T06:03:15.551Z,92.59
2022-12-31T06:05:43.641Z,92.99
2022-12-31T06:08:12.167Z,92.67
2022-12-31T06:10:39.669Z,93.58
2022-12-31T06:13:06.592Z,93.03
2022-12-31T06:15:33.411Z,93.25
2022-12-31T06:18:00.082Z,92.80
2022-12-31T06:20:26.658Z,92.64
2022-12-31T06:22:53.541Z,92.94
2022-12-31T06:25:20.015Z,93.68
2022-12-31T06:27:46.574Z,93.14
2022-12-31T06:30:13.780Z,93.04
2022-12-31T06:32:40.913Z,93.13
2022-12-31T06:35:07.899Z,92.98
2022-12-31T06:37:34.860Z,93.02
2022-12-31T06:40:01.599Z,93.24
2022-12-31T06:42:30.912Z,93.36
2022-12-31T06:44:58.484Z,93.72
2022-12-31T06:47:25.927Z,93.05
2022-12-31T06:49:53.192Z,93.26
2022-12-31T06:52:20.764Z,93.23
2022-12-31T06:54:48.052Z,93.99
2022-12-31T06:57:15.562Z,93.45
2022-12-31T06:59:42.478Z,93.95
2022-12-31T07:02:44.423Z,93.85
2022-12-31T07:05:28.877Z,93.78
2022-12-31T07:08:08.532Z,93.57
2022-12-31T07:10:38.140Z,93.48
2022-12-31T07:13:23.999Z,94.68
2022-12-31T07:15:54.567Z,94.13
2022-12-31T07:18:43.766Z,93.85
2022-12-31T07:21:16.746Z,93.58
2022-12-31T07:23:43.878Z,94.00
2022-12-31T07:26:35.762Z,93.92
2022-12-31T07:29:20.361Z,93.64
2022-12-31T07:32:02.578Z,93.67
2022-12-31T07:34:34.479Z,94.12
2022-12-31T07:37:14.171Z,94.82
2022-12-31T07:39:54.354Z,94.01
2022-12-31T07:42:37.707Z,94.75
2022-12-31T07:45:18.434Z,94.54
2022-12-31T07:47:45.332Z,95.51
2022-12-31T07:50:15.950Z,95.62
2022-12-31T07:52:43.031Z,95.17
2022-12-31T07:55:10.926Z,94.91
2022-12-31T07:57:47.363Z,95.21
2022-12-31T08:00:15.680Z,95.18
2022-12-31T08:02:54.106Z,95.42
2022-12-31T08:05:31.922Z,95.10
2022-12-31T08:08:17.820Z,94.92
2022-12-31T08:11:11.037Z,94.88
2022-12-31T08:13:39.051Z,95.07
2022-12-31T08:16:11.414Z,95.25
2022-12-31T08:18:38.250Z,95.33
2022-12-31T08:21:42.289Z,94.25
2022-12-31T08:24:30.659Z,94.41
2022-12-31T08:27:04.032Z,94.98
2022-12-31T08:29:42.440Z,94.75
2022-12-31T08:32:26.450Z,94.54
2022-12-31T08:35:03.353Z,94.17
2022-12-31T08:37:40.411Z,94.09
2022-12-31T08:40:19.152Z,94.19
2022-12-31T08:42:53.674Z,94.30
2022-12-31T08:45:29.079Z,94.47
2022-12-31T08:48:08.466Z,94.45
2022-12-31T08:50:35.198Z,94.65
2022-12-31T08:53:01.976Z,94.24
2022-12-31T08:55:30.120Z,94.70
2022-12-31T08:58:19.437Z,94.50
2022-12-31T09:00:48.205Z,94.42
2022-12-31T09:03:25.648Z,94.03
2022-12-31T09:06:00.541Z,94.02
2022-12-31T09:08:39.484Z,94.10
2022-12-31T09:11:43.466Z,94.38
2022-12-31T09:14:18.378Z,93.55
2022-12-31T09:17:15.401Z,93.33
2022-12-31T09:19:42.092Z,94.42
2022-12-31T09:22:10.626Z,93.87
2022-12-31T09:24:38.621Z,93.82
2022-12-31T09:27:16.107Z,94.31
2022-12-31T09:30:00.698Z,93.79
2022-12-31T09:32:40.065Z,93.72
2022-12-31T09:35:30.626Z,94.25
2022-12-31T09:38:12.913Z,92.78
2022-12-31T09:40:57.579Z,93.64
2022-12-31T09:44:01.837Z,93.46
2022-12-31T09:47:05.324Z,93.11
2022-12-31T09:49:44.016Z,93.16
2022-12-31T09:52:44.618Z,93.13
2022-12-31T09:55:30.305Z,93.20
2022-12-31T09:57:56.820Z,93.34
2022-12-31T10:01:01.513Z,93.62
2022-12-31T10:03:50.903Z,93.19
2022-12-31T10:06:46.606Z,93.27
2022-12-31T10:09:30.580Z,93.53
2022-12-31T10:12:20.706Z,93.34
2022-12-31T10:15:17.270Z,92.82
2022-12-31T10:18:16.714Z,93.11
2022-12-31T10:20:53.026Z,92.79
2022-12-31T10:23:19.650Z,92.46
2022-12-31T10:26:11.114Z,92.65
2022-12-31T10:28:37.505Z,92.42
2022-12-31T10:31:15.170Z,92.65
2022-12-31T10:33:43.386Z,92.23
2022-12-31T10:36:20.977Z,91.95
2022-12-31T10:39:14.389Z,91.43
2022-12-31T10:42:05.148Z,92.39
2022-12-31T10:44:43.977Z,91.54
2022-12-31T10:47:44.831Z,92.30
2022-12-31T10:50:49.059Z,92.28
2022-12-31T10:53:41.961Z,91.82
2022-12-31T10:56:31.089Z,92.21
2022-12-31T10:59:13.559Z,91.54
2022-12-31T11:01:49.035Z,92.07
2022-12-31T11:04:28.191Z,91.97
2022-12-31T11:07:07.366Z,91.71
2022-12-31T11:10:18.556Z,91.79
2022-12-31T11:13:04.007Z,91.79
2022-12-31T11:15:33.540Z,92.20
2022-12-31T11:18:30.590Z,92.28
2022-12-31T11:21:18.382Z,91.93
2022-12-31T11:24:17.648Z,92.18
2022-12-31T11:26:56.255Z,91.86
2022-12-31T11:29:29.014Z,92.52
2022-12-31T11:31:58.724Z,92.20
2022-12-31T11:35:02.757Z,92.43
2022-12-31T11:37:40.315Z,92.61
2022-12-31T11:40:15.627Z,92.25
2022-12-31T11:42:54.466Z,92.29
2022-12-31T11:45:39.430Z,92.39
2022-12-31T11:48:30.556Z,92.18
2022-12-31T11:51:19.458Z,92.09
2022-12-31T11:54:07.784Z,92.13
2022-12-31T11:56:38.956Z,91.88
2022-12-31T11:59:18.846Z,91.19
2022-12-31T12:01:56.254Z,92.04
2022-12-31T12:04:23.070Z,91.79
2022-12-31T12:06:50.324Z,92.22
2022-12-31T12:09:27.743Z,91.87
2022-12-31T12:12:00.358Z,91.61
2022-12-31T12:14:41.960Z,90.56
2022-12-31T12:17:32.110Z,90.50
2022-12-31T12:20:18.570Z,90.12
2022-12-31T12:22:51.330Z,90.99
2022-12-31T12:25:23.876Z,90.23
2022-12-31T12:27:50.534Z,90.66
2022-12-31T12:30:24.834Z,87.91
2022-12-31T12:33:01.913Z,90.95
2022-12-31T12:35:35.282Z,90.84
2022-12-31T12:38:06.026Z,90.60
2022-12-31T12:40:34.734Z,90.42
2022-12-31T12:43:03.335Z,90.50
2022-12-31T12:45:42.112Z,90.55
2022-12-31T12:48:18.211Z,88.49
2022-12-31T12:50:47.974Z,90.57
2022-12-31T12:53:26.962Z,89.29
2022-12-31T12:56:12.747Z,89.93
2022-12-31T12:58:55.083Z,89.86
2022-12-31T13:01:34.904Z,89.41
2022-12-31T13:04:34.720Z,89.61
2022-12-31T13:07:30.216Z,89.75
2022-12-31T13:10:15.968Z,89.85
2022-12-31T13:15:52.352Z,88.05
2022-12-31T13:18:46.192Z,88.85
2022-12-31T13:21:28.238Z,88.98
2022-12-31T13:24:01.075Z,89.46
2022-12-31T13:26:30.320Z,88.96
2022-12-31T13:29:00.484Z,89.11
2022-12-31T13:31:34.171Z,88.95
2022-12-31T13:34:10.844Z,89.14
2022-12-31T13:36:41.899Z,87.22
2022-12-31T13:39:24.347Z,89.38
2022-12-31T13:41:58.120Z,89.17
2022-12-31T13:44:35.272Z,89.32
2022-12-31T13:47:10.929Z,89.49
2022-12-31T13:49:49.145Z,89.00
2022-12-31T13:52:34.651Z,89.05
2022-12-31T13:55:31.938Z,88.44
2022-12-31T13:58:09.565Z,88.52
2022-12-31T14:00:58.792Z,89.14
2022-12-31T14:03:40.449Z,89.09
2022-12-31T14:06:10.013Z,89.09
2022-12-31T14:08:36.745Z,89.22
2022-12-31T14:11:03.804Z,89.18
2022-12-31T14:13:43.307Z,88.98
2022-12-31T14:16:40.444Z,89.27
2022-12-31T14:19:13.085Z,88.00
2022-12-31T14:21:47.580Z,88.76
2022-12-31T14:24:30.027Z,89.41
2022-12-31T14:27:01.151Z,87.90
2022-12-31T14:29:39.736Z,87.68
2022-12-31T14:32:27.502Z,88.09
2022-12-31T14:35:23.168Z,88.06
2022-12-31T14:37:55.757Z,87.52
2022-12-31T14:40:32.091Z,88.33
2022-12-31T14:43:22.579Z,88.27
2022-12-31T14:46:10.586Z,86.79
2022-12-31T14:48:56.299Z,88.23
2022-12-31T14:51:28.595Z,88.18
2022-12-31T14:53:57.818Z,86.98
2022-12-31T14:56:45.503Z,87.09
2022-12-31T14:59:34.437Z,87.54
2022-12-31T15:02:27.191Z,87.94
2022-12-31T15:05:10.549Z,86.31
2022-12-31T15:07:43.702Z,86.90
2022-12-31T15:10:38.355Z,87.12
2022-12-31T15:13:32.691Z,87.73
2022-12-31T15:16:30.335Z,87.58
2022-12-31T15:19:41.642Z,87.40
2022-12-31T15:22:32.731Z,86.34
2022-12-31T15:25:01.158Z,86.28
2022-12-31T15:27:35.975Z,85.71
2022-12-31T15:30:04.092Z,86.67
2022-12-31T15:32:40.783Z,86.45
2022-12-31T15:35:30.928Z,86.35
2022-12-31T15:38:00.612Z,86.12
2022-12-31T15:40:29.561Z,85.23
2022-12-31T15:43:07.921Z,82.83
2022-12-31T15:45:38.525Z,85.72
2022-12-31T15:48:26.880Z,80.04
2022-12-31T15:50:57.922Z,83.81
2022-12-31T15:53:38.957Z,83.70
2022-12-31T15:56:07.704Z,83.80
2022-12-31T15:58:36.607Z,84.42
2022-12-31T16:01:20.224Z,83.24
2022-12-31T16:03:51.623Z,83.44
2022-12-31T16:06:18.592Z,83.82
2022-12-31T16:08:48.192Z,83.69
2022-12-31T16:11:16.209Z,83.52
2022-12-31T16:13:47.040Z,79.94
2022-12-31T16:16:23.294Z,80.11
2022-12-31T16:18:50.528Z,83.24
2022-12-31T16:21:28.149Z,83.01
2022-12-31T16:23:58.180Z,82.48
2022-12-31T16:26:31.413Z,80.14
2022-12-31T16:29:00.839Z,80.23
2022-12-31T16:31:29.032Z,81.83
2022-12-31T16:34:11.006Z,81.93
2022-12-31T16:36:37.627Z,81.30
2022-12-31T16:39:21.316Z,78.69
2022-12-31T16:41:47.982Z,81.42
2022-12-31T16:44:25.825Z,79.30
2022-12-31T16:46:56.475Z,81.40
2022-12-31T16:49:23.713Z,80.82
2022-12-31T16:51:50.468Z,80.23
2022-12-31T16:54:23.567Z,77.02
2022-12-31T16:56:51.557Z,80.76
2022-12-31T16:59:34.945Z,78.66
2022-12-31T17:02:04.541Z,80.09
2022-12-31T17:04:31.358Z,79.74
2022-12-31T17:07:26.703Z,76.12
2022-12-31T17:10:08.417Z,80.16
2022-12-31T17:13:01.041Z,74.28
2022-12-31T17:15:38.331Z,79.53
2022-12-31T17:18:06.179Z,76.65
2022-12-31T17:20:34.239Z,77.89
2022-12-31T17:23:05.754Z,78.47
2022-12-31T17:25:36.008Z,78.32
2022-12-31T17:28:19.445Z,77.80
2022-12-31T17:30:46.088Z,78.44
2022-12-31T17:33:12.599Z,76.39
2022-12-31T17:35:42.341Z,78.03
2022-12-31T17:38:18.085Z,77.96
2022-12-31T17:40:51.593Z,76.80
2022-12-31T17:43:23.666Z,77.94
2022-12-31T17:45:54.745Z,77.37
2022-12-31T17:48:27.226Z,75.07
2022-12-31T17:50:59.867Z,76.21
2022-12-31T17:53:26.943Z,74.44
2022-12-31T17:55:56.033Z,73.12
2022-12-31T17:58:29.392Z,77.23
2022-12-31T18:00:58.269Z,75.33
2022-12-31T18:03:25.265Z,76.22
2022-12-31T18:05:52.029Z,76.19
2022-12-31T18:08:18.567Z,75.48
2022-12-31T18:10:45.419Z,76.16
2022-12-31T18:13:23.925Z,74.25
2022-12-31T18:15:51.453Z,75.49
2022-12-31T18:18:25.472Z,75.66
2022-12-31T18:20:57.754Z,75.37
2022-12-31T18:23:27.506Z,72.18
2022-12-31T18:25:54.794Z,75.05
2022-12-31T18:28:21.370Z,71.98
2022-12-31T18:30:48.298Z,74.98
2022-12-31T18:33:20.061Z,74.91
2022-12-31T18:38:34.067Z,74.38
2022-12-31T18:41:00.675Z,70.19
2022-12-31T18:43:27.728Z,73.93
2022-12-31T18:45:54.268Z,72.49
2022-12-31T18:48:20.931Z,73.25
2022-12-31T18:50:48.494Z,72.96
2022-12-31T18:53:20.462Z,73.10
2022-12-31T18:55:53.823Z,70.70
2022-12-31T18:58:25.247Z,72.21
2022-12-31T19:00:52.822Z,72.31
2022-12-31T19:03:23.076Z,71.02
2022-12-31T19:05:51.348Z,72.21
2022-12-31T19:08:19.602Z,72.44
2022-12-31T19:10:52.014Z,68.94
2022-12-31T19:13:20.114Z,71.14
2022-12-31T19:15:54.288Z,68.92
2022-12-31T19:18:20.881Z,68.55
2022-12-31T19:20:47.890Z,69.01
2022-12-31T19:23:20.529Z,70.41
2022-12-31T19:25:50.318Z,70.71
2022-12-31T19:28:20.949Z,69.94
2022-12-31T19:30:48.197Z,70.86
2022-12-31T19:33:15.238Z,70.13
2022-12-31T19:35:42.313Z,70.03
2022-12-31T19:38:20.572Z,66.17
2022-12-31T19:40:48.334Z,68.15
2022-12-31T19:43:17.559Z,69.57
2022-12-31T19:45:45.345Z,69.12
2022-12-31T19:48:14.302Z,65.09
2022-12-31T19:50:44.152Z,68.15
2022-12-31T19:53:13.750Z,69.39
2022-12-31T19:55:40.403Z,68.13
2022-12-31T19:58:07.476Z,68.96
2022-12-31T20:00:34.819Z,63.33
2022-12-31T20:03:01.549Z,68.78
2022-12-31T20:05:28.165Z,68.21
2022-12-31T20:07:55.101Z,67.51
2022-12-31T20:10:21.639Z,67.92
2022-12-31T20:12:48.189Z,68.46
2022-12-31T20:15:14.663Z,67.88
2022-12-31T20:17:41.203Z,66.07
2022-12-31T20:20:08.373Z,63.03
2022-12-31T20:22:35.131Z,65.46
2022-12-31T20:25:01.705Z,66.88
2022-12-31T20:27:28.331Z,67.46
2022-12-31T20:29:54.845Z,67.32
2022-12-31T20:32:21.405Z,64.29
2022-12-31T20:34:48.290Z,66.54
2022-12-31T20:37:14.772Z,64.50
2022-12-31T20:39:42.725Z,64.89
2022-12-31T20:42:09.295Z,66.57
2022-12-31T20:44:36.067Z,64.83
2022-12-31T20:47:02.909Z,66.25
2022-12-31T20:50:00.968Z,65.79
2022-12-31T20:52:16.021Z,63.09
2022-12-31T20:54:42.585Z,65.23
2022-12-31T20:57:09.182Z,64.49
2022-12-31T20:59:36.904Z,66.06
2022-12-31T21:04:50.570Z,63.31
2022-12-31T21:07:17.250Z,65.41
2022-12-31T21:09:43.705Z,64.34
2022-12-31T21:12:30.116Z,65.49
2022-12-31T21:14:56.800Z,63.71
2022-12-31T21:17:23.593Z,64.85
2022-12-31T21:19:50.119Z,65.04
2022-12-31T21:22:16.684Z,65.30
2022-12-31T21:24:43.190Z,64.45
2022-12-31T21:27:09.804Z,65.25
2022-12-31T21:29:50.390Z,63.55
2022-12-31T21:32:23.538Z,63.01
2022-12-31T21:35:14.736Z,64.86
2022-12-31T21:37:58.644Z,64.37
2022-12-31T21:40:23.218Z,65.06
2022-12-31T21:42:49.859Z,64.78
2022-12-31T21:45:16.465Z,65.06
2022-12-31T21:48:01.659Z,64.85
2022-12-31T21:50:28.456Z,65.53
2022-12-31T21:52:54.972Z,65.26
2022-12-31T21:55:39.756Z,65.43
2022-12-31T22:01:11.678Z,65.68
2022-12-31T22:03:38.459Z,65.51
2022-12-31T22:06:12.279Z,66.20
2022-12-31T22:08:40.691Z,65.56
2022-12-31T22:11:08.345Z,66.09
2022-12-31T22:13:35.460Z,65.26
2022-12-31T22:16:05.572Z,63.82
2022-12-31T22:18:35.156Z,64.90
2022-12-31T22:21:20.716Z,65.64
2022-12-31T22:23:51.865Z,65.55
2022-12-31T22:26:21.373Z,65.56
2022-12-31T22:28:48.058Z,65.94
2022-12-31T22:31:24.676Z,65.70
2022-12-31T22:33:51.572Z,65.12
2022-12-31T22:36:20.458Z,65.47
2022-12-31T22:38:48.391Z,65.22
2022-12-31T22:41:20.032Z,64.03
2022-12-31T22:43:49.691Z,65.61
2022-12-31T22:46:18.078Z,66.14
2022-12-31T22:48:44.919Z,65.47
2022-12-31T22:51:12.461Z,63.27
2022-12-31T22:53:41.210Z,65.39
2022-12-31T22:56:09.223Z,65.97
2022-12-31T22:58:39.543Z,65.26
2022-12-31T23:01:14.901Z,65.81
2022-12-31T23:03:42.527Z,65.74
2022-12-31T23:06:10.734Z,65.13
2022-12-31T23:08:37.429Z,65.09
2022-12-31T23:11:06.005Z,65.88
2022-12-31T23:13:59.577Z,64.34
2022-12-31T23:16:47.638Z,65.27
2022-12-31T23:19:34.344Z,65.54
2022-12-31T23:22:19.482Z,65.32
2022-12-31T23:24:46.045Z,65.28
2022-12-31T23:27:12.940Z,65.87
2022-12-31T23:29:46.528Z,65.31
2022-12-31T23:32:15.534Z,66.20
2022-12-31T23:34:43.352Z,65.95
2022-12-31T23:37:10.327Z,65.07
2022-12-31T23:39:36.910Z,65.49
2022-12-31T23:42:03.673Z,65.68
2022-12-31T23:44:30.655Z,65.54
2022-12-31T23:46:57.326Z,65.09
2022-12-31T23:49:24.007Z,65.41
2022-12-31T23:51:50.513Z,65.18
2022-12-31T23:54:17.903Z,65.44
2022-12-31T23:56:44.520Z,65.57
2022-12-31T23:59:12.297Z,66.11
